Time;durP1;ratioP1;P1;durP2;ratioP2;P2;SDS_P1;SDS_P2;PMS_P1;PMS_P2;Temp;Humidity;BMP_temperature;BMP_pressure;BME280_temperature;BME280_humidity;BME280_pressure;Samples;Min_cycle;Max_cycle;Signal;HPM_P1;HPM_P2
2023/07/01 00:01:06;;;;;;;6.73;4.60;;;;;11.60;93837.00;;;;7400650;19;20149;-79
2023/07/01 00:03:47;;;;;;;7.55;4.57;;;;;11.50;93834.00;;;;7397949;19;20507;-78
2023/07/01 00:06:15;;;;;;;5.60;4.60;;;;;11.50;93833.00;;;;7398803;19;20154;-78
2023/07/01 00:08:49;;;;;;;11.63;4.60;;;;;11.50;93821.00;;;;7401128;19;20576;-78
2023/07/01 00:11:23;;;;;;;7.15;3.92;;;;;11.40;93828.00;;;;7400956;19;20147;-79
2023/07/01 00:13:55;;;;;;;6.47;4.25;;;;;11.40;93822.00;;;;7401223;19;20133;-78
2023/07/01 00:16:30;;;;;;;7.45;4.75;;;;;11.40;93817.00;;;;7400303;19;20157;-79
2023/07/01 00:18:59;;;;;;;5.00;4.30;;;;;11.30;93827.00;;;;7402155;19;20137;-80
2023/07/01 00:21:35;;;;;;;10.77;5.00;;;;;11.30;93820.00;;;;7400489;19;20149;-79
2023/07/01 00:24:10;;;;;;;7.80;4.43;;;;;11.20;93823.00;;;;7400901;19;20140;-79
2023/07/01 00:26:38;;;;;;;8.45;4.38;;;;;11.20;93820.00;;;;7399911;19;20141;-79
2023/07/01 00:29:13;;;;;;;6.80;4.28;;;;;11.10;93821.00;;;;7403153;19;20595;-79
2023/07/01 00:31:41;;;;;;;9.00;4.55;;;;;11.10;93821.00;;;;7402505;19;20156;-79
2023/07/01 00:34:15;;;;;;;7.40;4.63;;;;;11.10;93819.00;;;;7399711;19;20150;-79
2023/07/01 00:36:49;;;;;;;8.73;4.70;;;;;11.00;93822.00;;;;7401339;19;20136;-79
2023/07/01 00:39:17;;;;;;;8.50;4.40;;;;;10.90;93820.00;;;;7402031;19;20148;-79
2023/07/01 00:41:56;;;;;;;11.03;4.40;;;;;10.90;93824.00;;;;7399481;19;20174;-78
2023/07/01 00:44:24;;;;;;;8.90;4.93;;;;;10.90;93821.00;;;;7402157;19;20204;-78
2023/07/01 00:47:00;;;;;;;7.00;4.03;;;;;10.90;93815.00;;;;7399868;19;20203;-79
2023/07/01 00:49:34;;;;;;;8.33;4.43;;;;;10.90;93810.00;;;;7400834;19;20161;-78
2023/07/01 00:52:09;;;;;;;7.17;4.50;;;;;10.90;93807.00;;;;7399814;19;20140;-79
2023/07/01 00:54:47;;;;;;;7.10;5.23;;;;;10.90;93811.00;;;;7400307;19;20544;-79
2023/07/01 00:57:21;;;;;;;7.13;4.50;;;;;10.90;93811.00;;;;7400511;19;20635;-78
2023/07/01 00:59:49;;;;;;;6.07;4.93;;;;;10.90;93810.00;;;;7398262;19;20570;-79
2023/07/01 01:02:30;;;;;;;7.17;5.23;;;;;10.90;93804.00;;;;7391756;19;20203;-76
2023/07/01 01:05:12;;;;;;;6.40;4.90;;;;;10.90;93812.00;;;;7397992;19;20144;-74
2023/07/01 01:08:30;;;;;;;9.43;4.60;;;;;10.90;93796.00;;;;7398311;19;20141;-74
2023/07/01 01:11:05;;;;;;;7.37;4.93;;;;;11.00;93803.00;;;;7394034;19;20264;-77
2023/07/01 01:13:43;;;;;;;7.73;4.53;;;;;11.00;93796.00;;;;7397131;19;20152;-76
2023/07/01 01:16:12;;;;;;;6.63;5.10;;;;;10.90;93798.00;;;;7398408;19;20147;-77
2023/07/01 01:18:48;;;;;;;5.60;4.60;;;;;10.90;93797.00;;;;7398638;19;20602;-77
2023/07/01 01:21:17;;;;;;;7.17;4.93;;;;;10.80;93788.00;;;;7401458;19;20160;-74
2023/07/01 01:24:06;;;;;;;7.07;4.97;;;;;10.80;93802.00;;;;7398958;19;20611;-74
2023/07/01 01:26:39;;;;;;;6.87;4.30;;;;;10.70;93796.00;;;;7396816;19;20499;-74
2023/07/01 01:29:14;;;;;;;5.70;4.40;;;;;10.60;93789.00;;;;7397972;19;20611;-77
2023/07/01 01:31:42;;;;;;;8.33;5.10;;;;;10.60;93795.00;;;;7401349;19;20160;-76
2023/07/01 01:34:16;;;;;;;7.10;4.97;;;;;10.60;93796.00;;;;7398246;19;20140;-74
2023/07/01 01:36:56;;;;;;;5.53;4.63;;;;;10.50;93794.00;;;;7397687;19;20209;-75
2023/07/01 01:39:38;;;;;;;7.20;5.10;;;;;10.60;93792.00;;;;7398101;19;20160;-73
2023/07/01 01:42:28;;;;;;;5.13;4.60;;;;;10.70;93787.00;;;;7398805;19;20172;-76
2023/07/01 01:45:04;;;;;;;7.60;5.00;;;;;10.60;93784.00;;;;7399128;19;20503;-76
2023/07/01 01:47:33;;;;;;;9.50;5.03;;;;;10.60;93792.00;;;;7396746;19;20482;-76
2023/07/01 01:50:11;;;;;;;9.50;5.47;;;;;10.60;93794.00;;;;7399666;19;20140;-74
2023/07/01 01:52:41;;;;;;;7.53;5.20;;;;;10.60;93788.00;;;;7400034;19;20136;-75
2023/07/01 01:55:16;;;;;;;8.10;5.43;;;;;10.50;93782.00;;;;7396770;19;20137;-76
2023/07/01 01:57:46;;;;;;;6.23;5.37;;;;;10.50;93782.00;;;;7397230;19;20656;-76
2023/07/01 02:00:20;;;;;;;11.67;5.30;;;;;10.60;93783.00;;;;7397716;19;20610;-76
2023/07/01 02:02:54;;;;;;;8.40;5.23;;;;;10.60;93781.00;;;;7395296;19;20157;-76
2023/07/01 02:05:29;;;;;;;6.60;5.80;;;;;10.50;93780.00;;;;7395593;19;20145;-76
2023/07/01 02:08:01;;;;;;;7.90;5.10;;;;;10.50;93784.00;;;;7398317;19;20137;-76
2023/07/01 02:10:36;;;;;;;10.50;5.53;;;;;10.40;93775.00;;;;7396604;19;20137;-75
2023/07/01 02:13:05;;;;;;;8.30;5.27;;;;;10.50;93773.00;;;;7395075;19;20211;-73
2023/07/01 02:15:39;;;;;;;8.13;5.93;;;;;10.60;93770.00;;;;7392997;19;20148;-74
2023/07/01 02:18:06;;;;;;;6.80;5.20;;;;;10.50;93771.00;;;;7397192;19;20170;-76
2023/07/01 02:20:34;;;;;;;8.17;5.70;;;;;10.50;93777.00;;;;7396827;19;20216;-76
2023/07/01 02:23:09;;;;;;;7.87;6.00;;;;;10.70;93777.00;;;;7395612;19;20156;-78
2023/07/01 02:25:37;;;;;;;8.70;6.20;;;;;10.60;93768.00;;;;7396538;19;20144;-79
2023/07/01 02:28:04;;;;;;;7.13;6.00;;;;;10.60;93764.00;;;;7396970;19;20587;-77
2023/07/01 02:30:39;;;;;;;8.40;5.50;;;;;10.50;93773.00;;;;7396362;19;20721;-78
2023/07/01 02:33:14;;;;;;;9.77;5.63;;;;;10.50;93770.00;;;;7397875;19;20168;-79
2023/07/01 02:35:49;;;;;;;6.73;5.47;;;;;10.60;93769.00;;;;7395766;19;20144;-78
2023/07/01 02:38:17;;;;;;;9.47;6.23;;;;;10.50;93774.00;;;;7397221;19;20588;-79
2023/07/01 02:40:51;;;;;;;10.37;6.07;;;;;10.50;93764.00;;;;7396462;19;20143;-77
2023/07/01 02:43:19;;;;;;;11.07;5.80;;;;;10.50;93768.00;;;;7396474;19;20155;-79
2023/07/01 02:45:53;;;;;;;7.67;5.50;;;;;10.50;93762.00;;;;7395693;19;20590;-78
2023/07/01 02:48:21;;;;;;;9.67;5.83;;;;;10.50;93765.00;;;;7396846;19;20144;-77
2023/07/01 02:50:55;;;;;;;11.33;6.80;;;;;10.60;93762.00;;;;7397590;19;20133;-78
2023/07/01 02:53:23;;;;;;;8.63;6.17;;;;;10.60;93759.00;;;;7395220;19;20272;-79
2023/07/01 02:55:58;;;;;;;15.23;6.30;;;;;10.60;93761.00;;;;7395735;19;20149;-77
2023/07/01 02:58:32;;;;;;;9.87;6.63;;;;;10.60;93753.00;;;;7397623;19;20606;-78
2023/07/01 03:01:13;;;;;;;10.97;6.50;;;;;10.60;93766.00;;;;7395264;19;20154;-78
2023/07/01 03:03:41;;;;;;;7.13;6.00;;;;;10.50;93767.00;;;;7394940;19;20141;-78
2023/07/01 03:06:17;;;;;;;7.53;5.67;;;;;10.40;93759.00;;;;7388985;19;20611;-80
2023/07/01 03:08:45;;;;;;;8.03;6.00;;;;;10.50;93759.00;;;;7396040;19;20145;-78
2023/07/01 03:11:19;;;;;;;7.73;5.97;;;;;10.40;93755.00;;;;7394666;19;20171;-76
2023/07/01 03:13:47;;;;;;;8.73;6.13;;;;;10.40;93758.00;;;;7394593;19;20141;-75
2023/07/01 03:16:21;;;;;;;8.63;5.63;;;;;10.50;93755.00;;;;7395066;19;20211;-79
2023/07/01 03:18:48;;;;;;;8.53;6.50;;;;;10.40;93754.00;;;;7395452;19;20495;-76
2023/07/01 03:21:16;;;;;;;13.33;6.03;;;;;10.30;93758.00;;;;7394500;19;20157;-78
2023/07/01 03:23:52;;;;;;;7.93;5.63;;;;;10.30;93752.00;;;;7395832;19;20156;-77
2023/07/01 03:26:20;;;;;;;11.17;6.50;;;;;10.30;93755.00;;;;7400140;19;20559;-78
2023/07/01 03:28:54;;;;;;;7.10;5.60;;;;;10.20;93760.00;;;;7403928;19;20476;-77
2023/07/01 03:31:22;;;;;;;7.93;6.60;;;;;10.30;93759.00;;;;7410932;19;20133;-82
2023/07/01 03:33:50;;;;;;;7.43;6.00;;;;;10.30;93758.00;;;;7405517;19;20164;-82
2023/07/01 03:36:26;;;;;;;9.27;5.50;;;;;10.30;93766.00;;;;7412820;19;20152;-80
2023/07/01 03:39:01;;;;;;;10.20;5.93;;;;;10.30;93757.00;;;;7407040;19;20129;-80
2023/07/01 03:41:35;;;;;;;6.77;5.27;;;;;10.30;93763.00;;;;7404645;19;20155;-81
2023/07/01 03:44:03;;;;;;;8.13;5.67;;;;;10.30;93768.00;;;;7415988;19;20137;-82
2023/07/01 03:46:38;;;;;;;9.37;6.30;;;;;10.40;93768.00;;;;7407610;19;20140;-83
2023/07/01 03:49:12;;;;;;;7.20;5.97;;;;;10.40;93768.00;;;;7404837;19;20499;-82
2023/07/01 03:51:46;;;;;;;9.03;5.20;;;;;10.50;93760.00;;;;7402290;19;20141;-81
2023/07/01 03:54:15;;;;;;;8.07;5.60;;;;;10.40;93755.00;;;;7403646;19;20156;-82
2023/07/01 03:56:49;;;;;;;8.47;5.17;;;;;10.50;93759.00;;;;7400949;19;20147;-82
2023/07/01 03:59:16;;;;;;;7.57;5.63;;;;;10.50;93751.00;;;;7402448;19;20496;-83
2023/07/01 04:01:59;;;;;;;6.70;4.93;;;;;10.50;93755.00;;;;7398343;19;20189;-81
2023/07/01 04:04:40;;;;;;;5.97;5.20;;;;;10.50;93754.00;;;;7400734;19;20721;-81
2023/07/01 04:07:08;;;;;;;10.80;5.37;;;;;10.60;93748.00;;;;7398297;19;20136;-81
2023/07/01 04:09:42;;;;;;;8.53;5.57;;;;;10.50;93741.00;;;;7401629;19;20567;-80
2023/07/01 04:12:10;;;;;;;12.20;5.20;;;;;10.60;93745.00;;;;7401217;19;20159;-82
2023/07/01 04:14:45;;;;;;;7.80;5.40;;;;;10.70;93752.00;;;;7398302;19;20611;-81
2023/07/01 04:17:13;;;;;;;5.78;5.10;;;;;10.60;93761.00;;;;7401805;19;20576;-82
2023/07/01 04:19:48;;;;;;;7.07;4.70;;;;;10.60;93745.00;;;;7399574;19;20148;-81
2023/07/01 04:22:16;;;;;;;12.45;5.40;;;;;10.60;93753.00;;;;7402291;19;20136;-81
2023/07/01 04:24:50;;;;;;;7.65;4.80;;;;;10.60;93750.00;;;;7401551;19;20128;-79
2023/07/01 04:27:18;;;;;;;12.73;5.00;;;;;10.60;93748.00;;;;7397899;19;20618;-81
2023/07/01 04:29:52;;;;;;;7.87;4.77;;;;;10.70;93744.00;;;;7401154;19;20152;-81
2023/07/01 04:32:20;;;;;;;5.50;4.80;;;;;10.80;93749.00;;;;7401409;19;20143;-80
2023/07/01 04:35:01;;;;;;;6.37;4.97;;;;;10.90;93747.00;;;;7399356;19;20148;-81
2023/07/01 04:37:29;;;;;;;5.83;4.83;;;;;10.90;93748.00;;;;7400879;19;20144;-80
2023/07/01 04:40:04;;;;;;;5.30;4.80;;;;;11.00;93737.00;;;;7401950;19;20129;-76
2023/07/01 04:42:45;;;;;;;8.35;4.97;;;;;10.90;93747.00;;;;7398609;19;20141;-76
2023/07/01 04:45:20;;;;;;;9.20;5.28;;;;;11.20;93737.00;;;;7399089;19;20144;-76
2023/07/01 04:47:55;;;;;;;5.38;4.70;;;;;11.20;93741.00;;;;7396877;19;20610;-74
2023/07/01 04:50:29;;;;;;;7.57;5.13;;;;;11.30;93734.00;;;;7399600;19;20148;-76
2023/07/01 04:52:57;;;;;;;6.72;4.60;;;;;11.40;93738.00;;;;7400722;19;20144;-74
2023/07/01 04:55:25;;;;;;;8.18;4.70;;;;;11.50;93738.00;;;;7399786;19;20607;-76
2023/07/01 04:57:59;;;;;;;6.63;4.63;;;;;11.60;93736.00;;;;7400142;19;20141;-76
2023/07/01 05:00:27;;;;;;;6.88;4.80;;;;;11.70;93744.00;;;;7398856;19;20156;-75
2023/07/01 05:02:55;;;;;;;7.13;4.85;;;;;11.80;93736.00;;;;7397980;19;20157;-75
2023/07/01 05:05:29;;;;;;;8.18;4.88;;;;;11.90;93735.00;;;;7396648;19;20160;-76
2023/07/01 05:07:57;;;;;;;7.45;4.68;;;;;11.90;93728.00;;;;7397094;19;20144;-75
2023/07/01 05:10:32;;;;;;;9.10;4.53;;;;;12.20;93736.00;;;;7400365;19;20591;-76
2023/07/01 05:13:06;;;;;;;6.15;4.15;;;;;12.30;93733.00;;;;7398987;19;20594;-75
2023/07/01 05:15:43;;;;;;;5.50;4.53;;;;;12.30;93730.00;;;;7398418;19;20641;-76
2023/07/01 05:18:13;;;;;;;7.20;3.90;;;;;12.60;93736.00;;;;7399615;19;20204;-75
2023/07/01 05:20:48;;;;;;;6.18;3.95;;;;;12.60;93727.00;;;;7398889;19;20212;-76
2023/07/01 05:23:18;;;;;;;5.43;4.18;;;;;12.60;93723.00;;;;7395306;19;20268;-76
2023/07/01 05:25:50;;;;;;;6.13;3.92;;;;;12.80;93722.00;;;;7399035;19;20500;-74
2023/07/01 05:28:25;;;;;;;5.00;3.70;;;;;12.90;93725.00;;;;7399057;19;20157;-75
2023/07/01 05:30:59;;;;;;;7.20;3.53;;;;;13.00;93716.00;;;;7397871;19;20500;-75
2023/07/01 05:33:34;;;;;;;5.75;3.50;;;;;13.10;93711.00;;;;7398091;19;20916;-74
2023/07/01 05:36:01;;;;;;;5.88;4.40;;;;;13.40;93715.00;;;;7398681;19;20452;-75
2023/07/01 05:38:41;;;;;;;7.85;3.58;;;;;13.30;93706.00;;;;7398394;19;20200;-76
2023/07/01 05:41:08;;;;;;;5.75;3.40;;;;;13.50;93713.00;;;;7397960;19;20611;-76
2023/07/01 05:43:43;;;;;;;6.05;3.45;;;;;13.50;93707.00;;;;7400570;19;20523;-75
2023/07/01 05:46:11;;;;;;;8.32;3.05;;;;;13.50;93709.00;;;;7398480;19;20604;-75
2023/07/01 05:48:38;;;;;;;12.65;2.92;;;;;13.70;93702.00;;;;7395058;19;20228;-76
2023/07/01 05:51:13;;;;;;;8.55;3.00;;;;;14.10;93709.00;;;;7397935;19;20140;-76
2023/07/01 05:53:41;;;;;;;4.93;2.92;;;;;14.10;93706.00;;;;7396572;19;20168;-78
2023/07/01 05:56:16;;;;;;;3.58;3.00;;;;;14.30;93708.00;;;;7397265;19;20144;-78
2023/07/01 05:58:44;;;;;;;4.28;2.67;;;;;14.30;93703.00;;;;7398277;19;20488;-77
2023/07/01 06:01:31;;;;;;;5.25;2.42;;;;;14.50;93694.00;;;;7391983;19;20184;-77
2023/07/01 06:04:06;;;;;;;5.88;2.90;;;;;14.80;93698.00;;;;7388766;19;20149;-76
2023/07/01 06:06:40;;;;;;;7.18;2.78;;;;;15.00;93698.00;;;;7381100;19;20192;-79
2023/07/01 06:09:09;;;;;;;5.43;2.67;;;;;15.50;93703.00;;;;7389205;19;20143;-79
2023/07/01 06:11:52;;;;;;;4.60;2.22;;;;;15.70;93700.00;;;;7387567;19;20568;-79
2023/07/01 06:14:21;;;;;;;3.75;2.60;;;;;16.00;93698.00;;;;7386511;19;20159;-75
2023/07/01 06:16:56;;;;;;;6.50;2.40;;;;;16.40;93694.00;;;;7389713;19;20145;-73
2023/07/01 06:19:30;;;;;;;6.55;2.22;;;;;16.50;93693.00;;;;7388775;19;20132;-76
2023/07/01 06:22:25;;;;;;;8.10;2.28;;;;;16.70;93690.00;;;;7385229;19;20153;-79
2023/07/01 06:24:59;;;;;;;4.68;2.28;;;;;16.70;93691.00;;;;7386930;19;20155;-79
2023/07/01 06:27:27;;;;;;;3.55;2.00;;;;;17.10;93688.00;;;;7382850;19;20149;-77
2023/07/01 06:30:03;;;;;;;4.43;2.30;;;;;17.50;93682.00;;;;7383666;19;20618;-74
2023/07/01 06:32:37;;;;;;;3.25;2.08;;;;;18.10;93677.00;;;;7385655;19;20148;-76
2023/07/01 06:35:06;;;;;;;3.38;1.95;;;;;18.00;93678.00;;;;7384448;19;20133;-76
2023/07/01 06:37:41;;;;;;;5.70;2.30;;;;;17.80;93676.00;;;;7384400;19;20143;-73
2023/07/01 06:40:09;;;;;;;6.95;2.10;;;;;17.50;93682.00;;;;7384308;19;20160;-74
2023/07/01 06:42:44;;;;;;;5.20;1.90;;;;;17.70;93679.00;;;;7384401;19;20140;-74
2023/07/01 06:45:14;;;;;;;4.05;2.05;;;;;17.60;93683.00;;;;7383819;19;20975;-74
2023/07/01 06:47:42;;;;;;;3.20;1.80;;;;;17.30;93682.00;;;;7383853;19;20136;-73
2023/07/01 06:50:17;;;;;;;3.08;1.80;;;;;17.50;93685.00;;;;7384512;19;20188;-73
2023/07/01 06:52:48;;;;;;;7.53;1.85;;;;;17.60;93690.00;;;;7383857;19;20171;-74
2023/07/01 06:55:30;;;;;;;5.07;2.10;;;;;17.70;93685.00;;;;7385193;19;20149;-74
2023/07/01 06:58:04;;;;;;;5.75;1.88;;;;;17.70;93687.00;;;;7383713;19;20152;-74
2023/07/01 07:00:39;;;;;;;6.07;1.88;;;;;17.60;93691.00;;;;7383585;19;20156;-79
2023/07/01 07:03:12;;;;;;;2.83;1.88;;;;;17.80;93681.00;;;;7381716;19;20183;-81
2023/07/01 07:05:55;;;;;;;6.35;2.10;;;;;18.10;93691.00;;;;7381461;19;20152;-76
2023/07/01 07:08:22;;;;;;;4.10;1.90;;;;;18.30;93681.00;;;;7384875;19;20128;-78
2023/07/01 07:10:56;;;;;;;3.88;1.85;;;;;18.40;93672.00;;;;7382259;19;20611;-80
2023/07/01 07:13:24;;;;;;;4.50;1.95;;;;;18.40;93675.00;;;;7382896;19;20132;-80
2023/07/01 07:15:58;;;;;;;2.90;1.88;;;;;18.50;93675.00;;;;7384163;19;20496;-78
2023/07/01 07:18:33;;;;;;;2.67;2.08;;;;;18.70;93675.00;;;;7384502;19;20133;-76
2023/07/01 07:21:07;;;;;;;4.80;2.28;;;;;18.20;93659.00;;;;7384494;19;20147;-76
2023/07/01 07:23:46;;;;;;;3.33;1.67;;;;;18.30;93664.00;;;;7382804;19;20601;-78
2023/07/01 07:26:14;;;;;;;3.42;1.80;;;;;18.10;93665.00;;;;7382749;19;20152;-78
2023/07/01 07:28:49;;;;;;;2.38;1.60;;;;;18.30;93663.00;;;;7382665;19;20145;-75
2023/07/01 07:31:24;;;;;;;7.13;2.08;;;;;18.30;93663.00;;;;7381260;19;20154;-76
2023/07/01 07:33:58;;;;;;;2.50;1.63;;;;;18.10;93656.00;;;;7381829;19;20611;-77
2023/07/01 07:36:27;;;;;;;3.15;1.98;;;;;18.10;93677.00;;;;7384437;19;20132;-80
2023/07/01 07:39:04;;;;;;;3.03;1.80;;;;;17.90;93675.00;;;;7381559;19;20125;-78
2023/07/01 07:41:32;;;;;;;3.03;1.88;;;;;17.70;93670.00;;;;7381124;19;20152;-77
2023/07/01 07:44:07;;;;;;;2.55;1.80;;;;;17.80;93657.00;;;;7383342;19;20504;-78
2023/07/01 07:46:42;;;;;;;4.43;1.83;;;;;18.40;93653.00;;;;7384465;19;20136;-75
2023/07/01 07:49:19;;;;;;;3.75;1.85;;;;;18.70;93654.00;;;;7382132;19;20583;-77
2023/07/01 07:51:50;;;;;;;5.47;2.40;;;;;18.80;93664.00;;;;7382062;19;20137;-76
2023/07/01 07:54:28;;;;;;;4.72;2.05;;;;;18.20;93647.00;;;;7382272;19;20509;-76
2023/07/01 07:56:58;;;;;;;3.22;1.90;;;;;18.70;93645.00;;;;7382464;19;20204;-74
2023/07/01 07:59:32;;;;;;;3.22;1.88;;;;;19.20;93642.00;;;;7380960;19;20575;-73
2023/07/01 08:02:08;;;;;;;3.65;2.30;;;;;19.40;93634.00;;;;7380783;19;20198;-77
2023/07/01 08:04:49;;;;;;;4.93;2.33;;;;;20.00;93637.00;;;;7383804;19;20137;-77
2023/07/01 08:07:23;;;;;;;4.40;1.92;;;;;19.70;93625.00;;;;7380029;19;20141;-75
2023/07/01 08:09:57;;;;;;;6.63;2.28;;;;;20.20;93626.00;;;;7382578;19;20570;-77
2023/07/01 08:12:32;;;;;;;4.13;2.30;;;;;19.80;93641.00;;;;7388079;19;20151;-75
2023/07/01 08:15:07;;;;;;;10.38;1.98;;;;;18.90;93651.00;;;;7391132;19;20129;-78
2023/07/01 08:17:41;;;;;;;3.92;2.20;;;;;18.60;93648.00;;;;7386953;19;20131;-76
2023/07/01 08:20:11;;;;;;;3.72;2.22;;;;;18.60;93647.00;;;;7387383;19;20144;-74
2023/07/01 08:22:45;;;;;;;3.83;2.03;;;;;18.50;93651.00;;;;7387988;19;20133;-75
2023/07/01 08:25:14;;;;;;;5.63;2.10;;;;;18.60;93625.00;;;;7388331;19;20152;-78
2023/07/01 08:27:48;;;;;;;2.60;2.22;;;;;18.90;93623.00;;;;7387495;19;20148;-79
2023/07/01 08:30:16;;;;;;;7.95;1.98;;;;;19.20;93631.00;;;;7389742;19;20137;-76
2023/07/01 08:32:54;;;;;;;5.43;2.30;;;;;19.90;93628.00;;;;7389961;19;20129;-78
2023/07/01 08:35:29;;;;;;;7.10;1.88;;;;;19.70;93620.00;;;;7387897;19;20133;-76
2023/07/01 08:38:03;;;;;;;4.75;1.90;;;;;19.50;93625.00;;;;7387824;19;20155;-75
2023/07/01 08:40:38;;;;;;;3.20;1.83;;;;;19.50;93611.00;;;;7387577;19;20619;-79
2023/07/01 08:43:13;;;;;;;3.33;1.80;;;;;19.60;93620.00;;;;7389613;19;20607;-77
2023/07/01 08:45:51;;;;;;;3.05;2.03;;;;;19.10;93626.00;;;;7391154;19;20585;-77
2023/07/01 08:48:25;;;;;;;4.35;1.95;;;;;19.20;93624.00;;;;7386557;19;20587;-75
2023/07/01 08:51:10;;;;;;;2.17;1.73;;;;;19.60;93620.00;;;;7379720;19;20136;-76
2023/07/01 08:53:38;;;;;;;5.22;1.90;;;;;19.40;93620.00;;;;7387826;19;20144;-77
2023/07/01 08:56:13;;;;;;;2.78;1.60;;;;;19.70;93620.00;;;;7389636;19;20303;-76
2023/07/01 08:58:48;;;;;;;4.88;1.83;;;;;19.60;93609.00;;;;7387918;19;20615;-79
2023/07/01 09:01:23;;;;;;;4.63;1.73;;;;;19.60;93611.00;;;;7387686;19;20148;-79
2023/07/01 09:04:04;;;;;;;5.03;2.00;;;;;19.90;93600.00;;;;7388372;19;20624;-75
2023/07/01 09:06:34;;;;;;;2.33;1.90;;;;;19.80;93602.00;;;;7384862;19;20148;-79
2023/07/01 09:09:08;;;;;;;6.43;1.85;;;;;20.30;93602.00;;;;7387615;19;20153;-74
2023/07/01 09:11:38;;;;;;;5.72;2.13;;;;;20.00;93596.00;;;;7388802;19;20212;-74
2023/07/01 09:14:15;;;;;;;4.22;2.03;;;;;20.10;93593.00;;;;7388621;19;20218;-77
2023/07/01 09:16:52;;;;;;;3.20;2.17;;;;;19.90;93587.00;;;;7387890;19;20140;-75
2023/07/01 09:19:26;;;;;;;3.38;2.08;;;;;20.20;93577.00;;;;7388974;19;20128;-73
2023/07/01 09:22:09;;;;;;;3.38;2.28;;;;;20.60;93587.00;;;;7385808;19;20155;-76
2023/07/01 09:24:49;;;;;;;5.20;2.25;;;;;20.90;93582.00;;;;7388392;19;20164;-75
2023/07/01 09:27:53;;;;;;;5.25;2.20;;;;;20.90;93584.00;;;;7388782;19;20250;-75
2023/07/01 09:30:29;;;;;;;4.10;2.38;;;;;21.10;93583.00;;;;7388392;19;20143;-78
2023/07/01 09:33:16;;;;;;;4.28;2.40;;;;;21.40;93581.00;;;;7388436;19;20495;-77
2023/07/01 09:35:57;;;;;;;2.53;2.30;;;;;21.10;93577.00;;;;7387572;19;20583;-75
2023/07/01 09:38:25;;;;;;;4.93;2.63;;;;;21.60;93568.00;;;;7384807;19;20143;-74
2023/07/01 09:41:16;;;;;;;2.85;2.30;;;;;21.60;93563.00;;;;7387218;19;20159;-79
2023/07/01 09:43:44;;;;;;;3.58;2.55;;;;;21.90;93560.00;;;;7389064;19;20133;-76
2023/07/01 09:46:19;;;;;;;4.32;2.58;;;;;22.40;93549.00;;;;7383762;19;20545;-77
2023/07/01 09:48:56;;;;;;;3.97;2.47;;;;;23.40;93556.00;;;;7386211;19;20630;-76
2023/07/01 09:51:30;;;;;;;5.88;2.55;;;;;22.70;93551.00;;;;7385950;19;20132;-75
2023/07/01 09:53:59;;;;;;;4.15;2.65;;;;;23.30;93542.00;;;;7387239;19;20156;-77
2023/07/01 09:56:36;;;;;;;3.75;2.72;;;;;23.30;93559.00;;;;7389418;19;20646;-76
2023/07/01 09:59:04;;;;;;;3.47;3.17;;;;;23.30;93563.00;;;;7386109;19;20236;-74
2023/07/01 10:01:38;;;;;;;4.57;2.83;;;;;23.40;93558.00;;;;7386217;19;20235;-75
2023/07/01 10:04:21;;;;;;;7.38;2.85;;;;;23.10;93547.00;;;;7385968;19;20492;-76
2023/07/01 10:06:57;;;;;;;3.47;2.88;;;;;23.10;93542.00;;;;7385094;19;20148;-73
2023/07/01 10:09:27;;;;;;;4.97;3.22;;;;;22.70;93547.00;;;;7385093;19;20160;-77
2023/07/01 10:11:59;;;;;;;4.25;2.80;;;;;23.20;93536.00;;;;7388438;19;20158;-74
2023/07/01 10:14:35;;;;;;;7.65;2.72;;;;;22.10;93526.00;;;;7386126;19;20183;-78
2023/07/01 10:17:10;;;;;;;2.80;2.47;;;;;22.80;93539.00;;;;7384962;19;20128;-77
2023/07/01 10:19:47;;;;;;;3.03;2.67;;;;;22.70;93562.00;;;;7384874;19;20654;-78
2023/07/01 10:22:25;;;;;;;6.28;2.17;;;;;22.80;93569.00;;;;7387832;19;20129;-78
2023/07/01 10:25:06;;;;;;;4.05;2.50;;;;;22.40;93581.00;;;;7384489;19;20615;-78
2023/07/01 10:27:43;;;;;;;3.33;2.50;;;;;21.90;93576.00;;;;7385607;19;20145;-76
2023/07/01 10:30:20;;;;;;;3.08;2.50;;;;;21.30;93583.00;;;;7385154;19;20627;-75
2023/07/01 10:32:47;;;;;;;4.57;2.70;;;;;21.40;93581.00;;;;7384529;19;20133;-79
2023/07/01 10:35:21;;;;;;;8.90;2.30;;;;;21.20;93582.00;;;;7382628;19;20169;-75
2023/07/01 10:38:24;;;;;;;5.78;2.60;;;;;21.40;93584.00;;;;7384804;19;20192;-75
2023/07/01 10:40:59;;;;;;;6.60;2.15;;;;;21.10;93587.00;;;;7385238;19;20152;-75
2023/07/01 10:43:36;;;;;;;3.72;2.10;;;;;21.10;93585.00;;;;7386547;19;20156;-73
2023/07/01 10:46:23;;;;;;;3.70;2.20;;;;;21.00;93588.00;;;;7386195;19;20136;-75
2023/07/01 10:49:08;;;;;;;7.47;2.00;;;;;20.40;93597.00;;;;7384670;19;20153;-75
2023/07/01 10:51:45;;;;;;;3.15;2.20;;;;;20.40;93603.00;;;;7385955;19;20132;-76
2023/07/01 10:54:31;;;;;;;4.03;1.80;;;;;20.30;93597.00;;;;7385297;19;20175;-76
2023/07/01 10:57:25;;;;;;;4.95;2.03;;;;;20.40;93593.00;;;;7385242;19;20168;-74
2023/07/01 11:00:31;;;;;;;4.45;1.90;;;;;20.20;93591.00;;;;7384523;19;20125;-76
2023/07/01 11:03:36;;;;;;;5.80;2.25;;;;;20.20;93581.00;;;;7382285;19;20176;-78
2023/07/01 11:06:11;;;;;;;4.20;2.05;;;;;19.30;93588.00;;;;7383906;19;20141;-76
2023/07/01 11:08:48;;;;;;;2.38;1.45;;;;;19.70;93596.00;;;;7385237;19;20192;-75
2023/07/01 11:11:21;;;;;;;1.70;1.60;;;;;19.80;93594.00;;;;7381987;19;20141;-75
2023/07/01 11:14:04;;;;;;;5.22;2.17;;;;;19.80;93583.00;;;;7384542;19;20487;-74
2023/07/01 11:16:35;;;;;;;3.83;2.10;;;;;19.80;93587.00;;;;7386304;19;20139;-72
2023/07/01 11:19:15;;;;;;;4.38;2.17;;;;;19.90;93583.00;;;;7385208;19;20588;-74
2023/07/01 11:21:43;;;;;;;3.00;1.92;;;;;19.90;93581.00;;;;7383238;19;20160;-77
2023/07/01 11:24:23;;;;;;;2.20;1.98;;;;;19.90;93583.00;;;;7381442;19;20160;-77
2023/07/01 11:27:08;;;;;;;4.95;1.92;;;;;19.90;93578.00;;;;7374735;19;20882;-75
2023/07/01 11:29:44;;;;;;;5.38;2.03;;;;;20.20;93583.00;;;;7377123;19;20164;-77
2023/07/01 11:32:14;;;;;;;3.60;1.80;;;;;20.30;93588.00;;;;7379753;19;20216;-78
2023/07/01 11:34:57;;;;;;;6.97;2.20;;;;;20.20;93574.00;;;;7378876;19;20223;-74
2023/07/01 11:37:28;;;;;;;2.78;1.80;;;;;20.50;93564.00;;;;7378457;19;20140;-75
2023/07/01 11:40:04;;;;;;;3.38;1.90;;;;;20.80;93567.00;;;;7378386;19;20156;-75
2023/07/01 11:42:33;;;;;;;5.35;2.00;;;;;20.70;93566.00;;;;7379391;19;20153;-75
2023/07/01 11:45:10;;;;;;;6.38;2.17;;;;;20.70;93568.00;;;;7378409;19;20216;-75
2023/07/01 11:47:46;;;;;;;4.55;1.90;;;;;20.50;93564.00;;;;7385704;19;20141;-73
2023/07/01 11:50:16;;;;;;;4.53;2.00;;;;;20.70;93566.00;;;;7382885;19;20158;-74
2023/07/01 11:53:04;;;;;;;2.28;1.60;;;;;20.30;93577.00;;;;7384428;19;20156;-74
2023/07/01 11:55:45;;;;;;;2.17;1.50;;;;;19.70;93579.00;;;;7387722;19;20140;-74
2023/07/01 11:58:37;;;;;;;3.00;1.77;;;;;19.60;93576.00;;;;7389775;19;20144;-74
2023/07/01 12:01:35;;;;;;;2.42;1.60;;;;;19.70;93565.00;;;;7388735;19;20168;-74
2023/07/01 12:04:23;;;;;;;2.17;1.63;;;;;19.80;93552.00;;;;7390633;19;20485;-72
2023/07/01 12:07:12;;;;;;;1.98;1.52;;;;;20.70;93531.00;;;;7389131;19;20129;-74
2023/07/01 12:09:51;;;;;;;1.92;1.52;;;;;21.40;93527.00;;;;7386905;19;20133;-76
2023/07/01 12:12:32;;;;;;;3.25;1.48;;;;;22.10;93529.00;;;;7390270;19;20176;-78
2023/07/01 12:15:13;;;;;;;2.25;1.77;;;;;21.70;93522.00;;;;7392810;19;20148;-76
2023/07/01 12:17:53;;;;;;;3.35;1.80;;;;;21.60;93538.00;;;;7388813;19;20533;-73
2023/07/01 12:20:27;;;;;;;4.32;1.73;;;;;21.60;93535.00;;;;7388703;19;20144;-73
2023/07/01 12:22:56;;;;;;;2.10;1.83;;;;;21.50;93542.00;;;;7390274;19;20137;-76
2023/07/01 12:25:30;;;;;;;2.20;1.60;;;;;21.20;93532.00;;;;7388515;19;20133;-77
2023/07/01 12:27:58;;;;;;;1.88;1.50;;;;;21.20;93528.00;;;;7391378;19;23673;-75
2023/07/01 12:30:32;;;;;;;4.05;1.77;;;;;21.40;93525.00;;;;7389967;19;20489;-74
2023/07/01 12:33:00;;;;;;;2.28;1.90;;;;;21.60;93531.00;;;;7389686;19;20129;-76
2023/07/01 12:35:34;;;;;;;2.15;1.70;;;;;21.70;93531.00;;;;7389091;19;20129;-74
2023/07/01 12:38:03;;;;;;;3.05;1.33;;;;;21.30;93533.00;;;;7390628;19;20133;-75
2023/07/01 12:40:38;;;;;;;2.28;1.60;;;;;21.00;93541.00;;;;7388708;19;20159;-75
2023/07/01 12:43:18;;;;;;;4.13;1.50;;;;;20.90;93546.00;;;;7387899;19;20168;-74
2023/07/01 12:45:57;;;;;;;1.75;1.42;;;;;20.40;93545.00;;;;7389877;19;20156;-75
2023/07/01 12:48:32;;;;;;;2.10;1.67;;;;;20.70;93535.00;;;;7388696;19;20175;-75
2023/07/01 12:51:06;;;;;;;3.25;1.67;;;;;21.10;93529.00;;;;7389008;19;20590;-78
2023/07/01 12:53:38;;;;;;;1.95;1.58;;;;;21.40;93539.00;;;;7386992;19;20129;-75